createdAt,value
2023-03-14T00:01:39.188Z,4.60
2023-03-14T00:04:11.274Z,4.60
2023-03-14T00:06:43.327Z,5.40
2023-03-14T00:09:15.415Z,5.80
2023-03-14T00:11:47.622Z,4.50
2023-03-14T00:14:19.708Z,5.00
2023-03-14T00:16:52.212Z,4.90
2023-03-14T00:19:24.256Z,4.90
2023-03-14T00:21:56.253Z,4.10
2023-03-14T00:24:28.256Z,4.50
2023-03-14T00:27:01.663Z,5.50
2023-03-14T00:29:33.808Z,5.50
2023-03-14T00:32:06.094Z,4.20
2023-03-14T00:34:38.211Z,6.50
2023-03-14T00:37:10.235Z,4.90
2023-03-14T00:39:44.418Z,7.10
2023-03-14T00:42:16.526Z,5.30
2023-03-14T00:44:48.663Z,6.30
2023-03-14T00:47:20.808Z,4.80
2023-03-14T00:49:53.387Z,9.10
2023-03-14T00:52:25.431Z,7.70
2023-03-14T00:54:57.580Z,7.30
2023-03-14T00:57:30.069Z,5.50
2023-03-14T01:00:02.119Z,7.90
2023-03-14T01:02:34.218Z,6.70
2023-03-14T01:05:08.475Z,6.90
2023-03-14T01:07:40.732Z,5.70
2023-03-14T01:10:14.230Z,7.90
2023-03-14T01:12:46.297Z,5.90
2023-03-14T01:15:18.448Z,7.40
2023-03-14T01:17:51.190Z,8.00
2023-03-14T01:20:23.352Z,9.70
2023-03-14T01:22:55.459Z,13.90
2023-03-14T01:25:28.115Z,10.40
2023-03-14T01:28:01.900Z,9.10
2023-03-14T01:30:34.341Z,10.50
2023-03-14T01:33:06.396Z,11.20
2023-03-14T01:35:38.421Z,10.10
2023-03-14T01:38:10.653Z,13.20
2023-03-14T01:40:47.198Z,7.20
2023-03-14T01:43:21.879Z,8.50
2023-03-14T01:46:26.044Z,7.20
2023-03-14T01:49:06.509Z,6.80
2023-03-14T01:51:46.073Z,5.40
2023-03-14T01:54:24.802Z,5.20
2023-03-14T01:57:02.609Z,5.60
2023-03-14T01:59:36.688Z,6.80
2023-03-14T02:02:11.673Z,5.80
2023-03-14T02:04:44.948Z,6.40
2023-03-14T02:07:22.026Z,5.00
2023-03-14T02:10:10.680Z,5.20
2023-03-14T02:12:43.146Z,5.10
2023-03-14T02:15:20.543Z,5.60
2023-03-14T02:18:06.405Z,4.40
2023-03-14T02:21:21.937Z,6.10
2023-03-14T02:24:06.521Z,4.00
2023-03-14T02:26:47.116Z,3.90
2023-03-14T02:29:19.709Z,4.50
2023-03-14T02:31:52.417Z,4.00
2023-03-14T02:34:24.916Z,5.70
2023-03-14T02:36:57.546Z,5.40
2023-03-14T02:39:38.020Z,5.70
2023-03-14T02:42:10.736Z,4.90
2023-03-14T02:44:54.450Z,3.90
2023-03-14T02:47:32.309Z,4.70
2023-03-14T02:50:10.387Z,4.70
2023-03-14T02:52:42.532Z,5.00
2023-03-14T02:55:14.651Z,5.10
2023-03-14T02:57:47.918Z,5.00
2023-03-14T03:00:22.260Z,6.60
2023-03-14T03:02:54.303Z,5.70
2023-03-14T03:05:26.298Z,5.00
2023-03-14T03:07:58.397Z,3.00
2023-03-14T03:10:31.741Z,3.70
2023-03-14T03:13:03.823Z,4.10
2023-03-14T03:15:36.178Z,5.50
2023-03-14T03:18:08.870Z,4.20
2023-03-14T03:20:41.248Z,4.70
2023-03-14T03:23:13.284Z,5.00
2023-03-14T03:25:49.867Z,5.90
2023-03-14T03:28:22.440Z,5.10
2023-03-14T03:30:55.583Z,5.20
2023-03-14T03:33:27.991Z,4.60
2023-03-14T03:36:00.053Z,6.20
2023-03-14T03:38:35.825Z,5.00
2023-03-14T03:41:10.500Z,6.80
2023-03-14T03:43:42.693Z,4.10
2023-03-14T03:46:15.716Z,5.90
2023-03-14T03:48:47.816Z,5.50
2023-03-14T03:51:19.984Z,7.20
2023-03-14T03:53:52.759Z,6.60
2023-03-14T03:56:30.156Z,4.00
2023-03-14T03:59:02.254Z,5.40
2023-03-14T04:01:34.315Z,3.80
2023-03-14T04:04:06.720Z,6.10
2023-03-14T04:06:39.344Z,5.30
2023-03-14T04:09:12.036Z,4.70
2023-03-14T04:11:49.780Z,4.90
2023-03-14T04:14:25.250Z,5.90
2023-03-14T04:17:07.841Z,6.70
2023-03-14T04:19:40.057Z,5.20
2023-03-14T04:22:12.348Z,8.60
2023-03-14T04:24:54.318Z,11.50
2023-03-14T04:27:27.009Z,6.00
2023-03-14T04:29:59.736Z,6.20
2023-03-14T04:32:51.573Z,17.00
2023-03-14T04:35:25.345Z,9.10
2023-03-14T04:38:01.556Z,7.40
2023-03-14T04:40:35.694Z,5.10
2023-03-14T04:43:12.246Z,5.10
2023-03-14T04:45:51.133Z,5.20
2023-03-14T04:48:23.828Z,6.00
2023-03-14T04:50:57.068Z,7.60
2023-03-14T04:53:30.673Z,5.10
2023-03-14T04:56:05.548Z,6.30
2023-03-14T04:58:42.858Z,4.60
2023-03-14T05:01:14.982Z,6.20
2023-03-14T05:03:46.930Z,7.20
2023-03-14T05:06:38.238Z,5.90
2023-03-14T05:09:18.949Z,4.60
2023-03-14T05:12:04.481Z,6.40
2023-03-14T05:14:42.617Z,6.20
2023-03-14T05:17:25.289Z,6.30
2023-03-14T05:20:16.655Z,6.80
2023-03-14T05:23:01.156Z,6.40
2023-03-14T05:25:53.488Z,5.80
2023-03-14T05:29:03.677Z,6.90
2023-03-14T05:31:56.018Z,7.50
2023-03-14T05:34:50.255Z,6.80
2023-03-14T05:37:36.906Z,12.20
2023-03-14T05:40:27.877Z,12.70
2023-03-14T05:43:16.075Z,8.50
2023-03-14T05:46:17.402Z,4.60
2023-03-14T05:49:07.131Z,6.70
2023-03-14T05:51:49.018Z,4.70
2023-03-14T05:54:50.383Z,4.70
2023-03-14T05:57:32.165Z,13.20
2023-03-14T06:00:24.441Z,9.40
2023-03-14T06:03:07.767Z,7.10
2023-03-14T06:05:40.578Z,7.60
2023-03-14T06:08:12.574Z,7.90
2023-03-14T06:10:45.001Z,5.40
2023-03-14T06:13:17.592Z,6.20
2023-03-14T06:15:50.091Z,6.60
2023-03-14T06:18:22.245Z,7.50
2023-03-14T06:20:57.543Z,8.30
2023-03-14T06:23:31.628Z,9.00
2023-03-14T06:26:04.242Z,6.50
2023-03-14T06:28:36.751Z,6.20
2023-03-14T06:31:10.305Z,5.90
2023-03-14T06:33:48.748Z,4.90
2023-03-14T06:36:21.614Z,4.90
2023-03-14T06:38:54.181Z,6.30
2023-03-14T06:41:27.322Z,6.30
2023-03-14T06:43:59.584Z,7.10
2023-03-14T06:46:32.194Z,5.70
2023-03-14T06:49:04.300Z,6.50
2023-03-14T06:51:38.394Z,6.90
2023-03-14T06:54:11.449Z,6.80
2023-03-14T06:56:43.758Z,6.10
2023-03-14T06:59:16.260Z,4.80
2023-03-14T07:01:52.036Z,7.50
2023-03-14T07:04:24.439Z,7.30
2023-03-14T07:06:56.550Z,5.40
2023-03-14T07:09:29.866Z,6.00
2023-03-14T07:12:05.324Z,6.40
2023-03-14T07:14:37.482Z,5.40
2023-03-14T07:17:09.926Z,7.90
2023-03-14T07:19:42.279Z,5.90
2023-03-14T07:22:14.879Z,5.90
2023-03-14T07:24:46.994Z,7.40
2023-03-14T07:27:19.394Z,6.70
2023-03-14T07:29:52.561Z,9.10
2023-03-14T07:32:24.999Z,5.30
2023-03-14T07:34:57.572Z,7.70
2023-03-14T07:37:29.792Z,7.20
2023-03-14T07:40:02.475Z,6.50
2023-03-14T07:42:36.338Z,4.70
2023-03-14T07:45:24.824Z,4.90
2023-03-14T07:47:58.781Z,6.70
2023-03-14T07:50:31.176Z,7.30
2023-03-14T07:53:03.343Z,6.10
2023-03-14T07:55:35.359Z,6.80
2023-03-14T07:58:07.752Z,6.50
2023-03-14T08:00:40.037Z,5.20
2023-03-14T08:03:12.284Z,5.70
2023-03-14T08:05:45.719Z,6.10
2023-03-14T08:08:18.064Z,7.30
2023-03-14T08:10:50.145Z,6.10
2023-03-14T08:13:22.502Z,6.30
2023-03-14T08:15:54.533Z,4.40
2023-03-14T08:18:26.648Z,5.90
2023-03-14T08:20:59.092Z,4.30
2023-03-14T08:23:31.212Z,6.10
2023-03-14T08:26:03.429Z,5.10
2023-03-14T08:28:35.509Z,5.20
2023-03-14T08:31:08.217Z,6.10
2023-03-14T08:33:40.474Z,5.00
2023-03-14T08:36:13.504Z,5.40
2023-03-14T08:38:45.589Z,7.50
2023-03-14T08:41:17.581Z,3.90
2023-03-14T08:43:49.658Z,6.60
2023-03-14T08:46:21.743Z,6.50
2023-03-14T08:48:53.898Z,5.00
2023-03-14T08:51:25.951Z,4.50
2023-03-14T08:53:58.164Z,6.20
2023-03-14T08:56:30.320Z,6.60
2023-03-14T08:59:02.282Z,7.60
2023-03-14T09:01:34.422Z,6.40
2023-03-14T09:04:08.062Z,6.10
2023-03-14T09:06:40.393Z,10.10
2023-03-14T09:09:12.458Z,7.80
2023-03-14T09:11:45.264Z,9.40
2023-03-14T09:14:17.528Z,8.20
2023-03-14T09:16:49.855Z,8.90
2023-03-14T09:19:22.518Z,6.40
2023-03-14T09:21:54.737Z,10.20
2023-03-14T09:24:26.793Z,9.50
2023-03-14T09:27:00.205Z,5.90
2023-03-14T09:29:32.988Z,6.30
2023-03-14T09:32:05.671Z,6.70
2023-03-14T09:34:37.878Z,5.30
2023-03-14T09:37:10.010Z,8.30
2023-03-14T09:39:42.263Z,9.80
2023-03-14T09:42:20.045Z,7.60
2023-03-14T09:44:58.913Z,7.20
2023-03-14T09:47:32.145Z,8.60
2023-03-14T09:50:07.957Z,7.80
2023-03-14T09:52:45.193Z,9.20
2023-03-14T09:55:20.729Z,9.70
2023-03-14T09:57:56.887Z,8.30
2023-03-14T10:00:31.779Z,9.70
2023-03-14T10:03:22.500Z,8.90
2023-03-14T10:05:55.105Z,8.10
2023-03-14T10:08:27.203Z,6.60
2023-03-14T10:11:00.819Z,6.20
2023-03-14T10:13:32.955Z,6.00
2023-03-14T10:16:07.428Z,7.80
2023-03-14T10:18:39.588Z,8.80
2023-03-14T10:21:23.653Z,7.20
2023-03-14T10:23:56.157Z,5.80
2023-03-14T10:26:34.436Z,6.60
2023-03-14T10:29:10.854Z,6.70
2023-03-14T10:31:56.280Z,9.90
2023-03-14T10:34:30.596Z,12.60
2023-03-14T10:37:08.594Z,10.70
2023-03-14T10:39:47.883Z,7.60
2023-03-14T10:42:25.227Z,7.10
2023-03-14T10:45:02.451Z,7.70
2023-03-14T10:47:35.806Z,9.30
2023-03-14T10:50:28.460Z,8.00
2023-03-14T10:53:06.562Z,7.30
2023-03-14T10:55:47.339Z,8.60
2023-03-14T10:58:25.974Z,9.50
2023-03-14T11:01:06.507Z,10.10
2023-03-14T11:03:43.807Z,8.90
2023-03-14T11:06:20.868Z,12.50
2023-03-14T11:08:59.749Z,10.20
2023-03-14T11:11:33.448Z,9.60
2023-03-14T11:14:18.866Z,11.50
2023-03-14T11:17:00.606Z,7.70
2023-03-14T11:19:52.014Z,8.30
2023-03-14T11:22:35.658Z,5.70
2023-03-14T11:25:28.690Z,5.90
2023-03-14T11:28:10.597Z,8.30
2023-03-14T11:30:52.517Z,8.20
2023-03-14T11:33:30.308Z,8.10
2023-03-14T11:36:10.037Z,9.70
2023-03-14T11:38:50.288Z,10.30
2023-03-14T11:41:27.516Z,10.10
2023-03-14T11:44:02.176Z,9.90
2023-03-14T11:46:39.022Z,10.50
2023-03-14T11:49:23.558Z,12.40
2023-03-14T11:51:59.362Z,8.60
2023-03-14T11:54:44.010Z,9.90
2023-03-14T11:57:19.022Z,8.90
2023-03-14T11:59:58.254Z,7.70
2023-03-14T12:02:42.619Z,9.00
2023-03-14T12:05:34.963Z,8.00
2023-03-14T12:08:28.060Z,7.80
2023-03-14T12:11:05.504Z,8.40
2023-03-14T12:13:41.334Z,8.30
2023-03-14T12:16:33.108Z,9.90
2023-03-14T12:19:28.591Z,9.40
2023-03-14T12:22:08.219Z,8.00
2023-03-14T12:24:48.038Z,9.20
2023-03-14T12:27:43.080Z,14.20
2023-03-14T12:30:32.201Z,7.80
2023-03-14T12:33:34.069Z,9.80
2023-03-14T12:36:29.722Z,8.60
2023-03-14T12:39:12.760Z,10.10
2023-03-14T12:41:52.051Z,10.00
2023-03-14T12:44:45.707Z,11.90
2023-03-14T12:47:56.994Z,10.70
2023-03-14T12:50:37.202Z,9.90
2023-03-14T12:53:54.678Z,11.10
2023-03-14T12:56:40.477Z,11.30
2023-03-14T12:59:38.306Z,11.30
2023-03-14T13:02:25.583Z,9.60
2023-03-14T13:05:06.479Z,7.80
2023-03-14T13:08:06.822Z,7.80
2023-03-14T13:10:50.099Z,9.20
2023-03-14T13:13:27.982Z,7.50
2023-03-14T13:16:04.980Z,9.00
2023-03-14T13:18:41.204Z,6.80
2023-03-14T13:21:16.990Z,6.40
2023-03-14T13:24:01.004Z,9.30
2023-03-14T13:26:41.060Z,9.20
2023-03-14T13:29:22.553Z,8.10
2023-03-14T13:31:57.779Z,6.40
2023-03-14T13:34:32.903Z,6.20
2023-03-14T13:37:05.237Z,7.30
2023-03-14T13:39:41.898Z,9.50
2023-03-14T13:42:19.510Z,8.40
2023-03-14T13:44:53.668Z,6.90
2023-03-14T13:47:28.517Z,6.20
2023-03-14T13:50:02.458Z,8.30
2023-03-14T13:52:38.330Z,6.30
2023-03-14T13:55:18.768Z,9.70
2023-03-14T13:57:55.617Z,5.30
2023-03-14T14:00:31.161Z,7.30
2023-03-14T14:03:04.191Z,5.90
2023-03-14T14:05:38.718Z,6.70
2023-03-14T14:08:14.124Z,5.10
2023-03-14T14:10:51.206Z,5.10
2023-03-14T14:13:26.876Z,6.70
2023-03-14T14:16:02.101Z,5.40
2023-03-14T14:18:35.846Z,4.40
2023-03-14T14:21:10.648Z,4.80
2023-03-14T14:23:42.871Z,5.20
2023-03-14T14:26:21.223Z,6.00
2023-03-14T14:29:03.819Z,5.20
2023-03-14T14:31:36.073Z,4.70
2023-03-14T14:34:21.103Z,5.10
2023-03-14T14:36:53.231Z,4.10
2023-03-14T14:39:30.064Z,5.40
2023-03-14T14:42:02.268Z,4.70
2023-03-14T14:44:36.979Z,5.30
2023-03-14T14:47:09.613Z,6.10
2023-03-14T14:49:41.864Z,5.30
2023-03-14T14:52:18.901Z,4.30
2023-03-14T14:54:55.717Z,5.20
2023-03-14T14:57:31.568Z,5.40
2023-03-14T15:00:12.132Z,12.80
2023-03-14T15:02:47.968Z,21.60
2023-03-14T15:05:21.909Z,16.30
2023-03-14T15:07:54.452Z,13.80
2023-03-14T15:10:27.811Z,11.10
2023-03-14T15:13:00.273Z,12.00
2023-03-14T15:15:34.039Z,12.00
2023-03-14T15:18:11.662Z,13.90
2023-03-14T15:20:44.164Z,11.80
2023-03-14T15:23:18.207Z,26.50
2023-03-14T15:25:55.918Z,29.00
2023-03-14T15:28:30.902Z,21.40
2023-03-14T15:31:03.695Z,14.90
2023-03-14T15:33:35.790Z,8.70
2023-03-14T15:36:18.896Z,8.00
2023-03-14T15:38:50.986Z,8.20
2023-03-14T15:41:23.824Z,10.70
2023-03-14T15:43:56.346Z,7.10
2023-03-14T15:46:30.898Z,5.10
2023-03-14T15:49:03.500Z,4.80
2023-03-14T15:51:35.588Z,5.80
2023-03-14T15:54:07.735Z,6.70
2023-03-14T15:56:40.962Z,5.80
2023-03-14T15:59:13.319Z,5.60
2023-03-14T16:01:45.477Z,5.70
2023-03-14T16:04:17.565Z,7.10
2023-03-14T16:06:49.842Z,5.10
2023-03-14T16:09:24.763Z,5.90
2023-03-14T16:11:57.260Z,5.50
2023-03-14T16:14:29.396Z,6.10
2023-03-14T16:17:01.551Z,6.30
2023-03-14T16:19:34.353Z,6.20
2023-03-14T16:22:06.712Z,7.40
2023-03-14T16:24:39.754Z,4.90
2023-03-14T16:27:14.704Z,5.80
2023-03-14T16:29:49.894Z,6.80
2023-03-14T16:32:22.336Z,5.20
2023-03-14T16:34:54.716Z,5.40
2023-03-14T16:37:28.478Z,6.80
2023-03-14T16:40:12.467Z,7.30
2023-03-14T16:45:39.783Z,7.40
2023-03-14T16:48:12.114Z,6.50
2023-03-14T16:50:44.586Z,5.40
2023-03-14T16:53:16.655Z,6.00
2023-03-14T16:55:49.075Z,5.10
2023-03-14T16:58:22.176Z,6.10
2023-03-14T17:00:54.689Z,5.50
2023-03-14T17:03:28.189Z,5.50
2023-03-14T17:06:00.432Z,6.40
2023-03-14T17:08:32.949Z,7.70
2023-03-14T17:11:05.311Z,8.40
2023-03-14T17:13:37.791Z,6.00
2023-03-14T17:16:10.978Z,7.30
2023-03-14T17:18:43.472Z,6.00
2023-03-14T17:21:15.794Z,7.30
2023-03-14T17:23:48.056Z,5.70
2023-03-14T17:26:20.777Z,6.00
2023-03-14T17:28:53.151Z,6.80
2023-03-14T17:31:25.314Z,7.10
2023-03-14T17:33:57.598Z,5.20
2023-03-14T17:36:31.112Z,5.50
2023-03-14T17:39:03.745Z,5.60
2023-03-14T17:41:36.368Z,5.20
2023-03-14T17:44:10.551Z,4.80
2023-03-14T17:46:42.832Z,4.90
2023-03-14T17:49:15.350Z,7.10
2023-03-14T17:51:47.507Z,6.10
2023-03-14T17:54:19.777Z,6.60
2023-03-14T17:56:51.843Z,6.80
2023-03-14T17:59:24.108Z,8.80
2023-03-14T18:01:56.264Z,6.20
2023-03-14T18:04:29.019Z,7.50
2023-03-14T18:07:01.448Z,7.70
2023-03-14T18:09:33.871Z,7.30
2023-03-14T18:12:08.374Z,6.30
2023-03-14T18:14:44.520Z,5.30
2023-03-14T18:17:16.688Z,6.60
2023-03-14T18:19:49.554Z,6.10
2023-03-14T18:22:22.098Z,5.80
2023-03-14T18:24:54.779Z,8.30
2023-03-14T18:27:27.290Z,9.60
2023-03-14T18:29:59.511Z,7.10
2023-03-14T18:32:31.675Z,8.60
2023-03-14T18:35:03.812Z,7.60
2023-03-14T18:37:35.919Z,6.90
2023-03-14T18:40:13.821Z,5.80
2023-03-14T18:42:46.196Z,8.00
2023-03-14T18:45:18.531Z,7.90
2023-03-14T18:47:50.960Z,9.00
2023-03-14T18:50:23.382Z,8.70
2023-03-14T18:52:55.903Z,7.10
2023-03-14T18:55:28.547Z,6.50
2023-03-14T18:58:01.035Z,10.40
2023-03-14T19:00:34.230Z,8.00
2023-03-14T19:03:06.810Z,7.40
2023-03-14T19:05:44.437Z,7.60
2023-03-14T19:08:16.900Z,9.40
2023-03-14T19:10:49.115Z,7.20
2023-03-14T19:13:21.389Z,6.60
2023-03-14T19:15:53.575Z,7.50
2023-03-14T19:18:26.598Z,6.40
2023-03-14T19:21:04.674Z,6.30
2023-03-14T19:23:39.611Z,5.90
2023-03-14T19:26:12.025Z,5.70
2023-03-14T19:28:44.454Z,7.30
2023-03-14T19:31:16.768Z,6.10
2023-03-14T19:33:49.393Z,5.80
2023-03-14T19:36:26.061Z,5.90
2023-03-14T19:39:02.019Z,5.60
2023-03-14T19:41:35.360Z,6.20
2023-03-14T19:44:08.677Z,5.90
2023-03-14T19:46:41.647Z,6.70
2023-03-14T19:49:13.924Z,6.00
2023-03-14T19:51:46.478Z,6.70
2023-03-14T19:54:18.918Z,5.80
2023-03-14T19:56:51.541Z,7.10
2023-03-14T19:59:24.978Z,7.50
2023-03-14T20:01:58.560Z,7.70
2023-03-14T20:04:31.392Z,8.40
2023-03-14T20:07:04.917Z,7.70
2023-03-14T20:09:37.247Z,7.80
2023-03-14T20:12:10.632Z,7.70
2023-03-14T20:14:43.535Z,7.70
2023-03-14T20:17:15.942Z,8.90
2023-03-14T20:19:48.348Z,9.10
2023-03-14T20:22:20.774Z,7.80
2023-03-14T20:24:53.703Z,7.50
2023-03-14T20:27:26.024Z,8.00
2023-03-14T20:30:02.316Z,7.60
2023-03-14T20:32:34.715Z,7.80
2023-03-14T20:35:07.658Z,6.60
2023-03-14T20:37:41.664Z,6.10
2023-03-14T20:40:15.617Z,6.90
2023-03-14T20:42:47.806Z,6.70
2023-03-14T20:45:20.379Z,7.00
2023-03-14T20:47:52.634Z,8.80
2023-03-14T20:50:25.498Z,6.80
2023-03-14T20:52:57.878Z,6.60
2023-03-14T20:55:30.457Z,7.20
2023-03-14T20:58:03.022Z,7.20
2023-03-14T21:00:35.175Z,7.20
2023-03-14T21:03:08.471Z,6.60
2023-03-14T21:05:44.387Z,6.20
2023-03-14T21:08:17.524Z,8.50
2023-03-14T21:10:51.349Z,7.70
2023-03-14T21:13:23.426Z,5.60
2023-03-14T21:15:55.754Z,7.20
2023-03-14T21:18:28.052Z,8.00
2023-03-14T21:21:00.722Z,6.40
2023-03-14T21:23:34.652Z,8.80
2023-03-14T21:26:06.812Z,7.00
2023-03-14T21:28:38.861Z,7.20
2023-03-14T21:31:12.529Z,8.50
2023-03-14T21:33:44.761Z,9.70
2023-03-14T21:36:16.834Z,11.30
2023-03-14T21:38:48.869Z,10.10
2023-03-14T21:41:20.937Z,8.80
2023-03-14T21:43:53.916Z,12.60
2023-03-14T21:46:26.551Z,4.90
2023-03-14T21:48:58.599Z,2.40
2023-03-14T21:51:31.336Z,2.20
2023-03-14T21:54:10.133Z,1.90
2023-03-14T21:56:42.947Z,1.20
2023-03-14T21:59:15.845Z,3.70
2023-03-14T22:01:47.983Z,2.50
2023-03-14T22:04:26.349Z,1.90
2023-03-14T22:06:58.394Z,2.90
2023-03-14T22:09:30.990Z,2.10
2023-03-14T22:12:03.340Z,3.10
2023-03-14T22:14:36.256Z,6.60
2023-03-14T22:17:08.337Z,27.30
2023-03-14T22:19:40.574Z,8.10
2023-03-14T22:22:12.841Z,5.00
2023-03-14T22:24:45.020Z,8.20
2023-03-14T22:27:17.194Z,4.70
2023-03-14T22:29:49.336Z,4.90
2023-03-14T22:32:23.116Z,13.70
2023-03-14T22:34:55.201Z,2.80
2023-03-14T22:37:27.327Z,2.20
2023-03-14T22:39:59.450Z,6.30
2023-03-14T22:42:31.641Z,2.20
2023-03-14T22:45:03.705Z,3.60
2023-03-14T22:47:35.853Z,4.40
2023-03-14T22:50:09.159Z,2.40
2023-03-14T22:52:41.200Z,3.60
2023-03-14T22:55:13.618Z,4.70
2023-03-14T22:57:45.901Z,7.80
2023-03-14T23:00:18.846Z,8.60
2023-03-14T23:02:50.985Z,5.30
2023-03-14T23:05:23.437Z,7.70
2023-03-14T23:07:55.486Z,8.60
2023-03-14T23:10:28.437Z,4.90
2023-03-14T23:13:00.494Z,10.20
2023-03-14T23:15:33.914Z,7.80
2023-03-14T23:18:05.996Z,9.00
2023-03-14T23:20:39.583Z,9.60
2023-03-14T23:23:13.793Z,4.80
2023-03-14T23:25:53.450Z,6.70
2023-03-14T23:28:26.245Z,7.60
2023-03-14T23:30:59.723Z,6.70
2023-03-14T23:33:32.194Z,4.40
2023-03-14T23:36:08.481Z,3.40
2023-03-14T23:38:41.444Z,3.30
2023-03-14T23:41:14.675Z,6.90
2023-03-14T23:43:48.758Z,5.10
2023-03-14T23:46:21.882Z,4.30
2023-03-14T23:48:55.123Z,3.60
2023-03-14T23:51:28.212Z,9.30
2023-03-14T23:54:00.412Z,9.20
2023-03-14T23:56:32.500Z,9.70
2023-03-14T23:59:04.535Z,10.80
